createdAt,value
2022-08-05T00:01:36.316Z,99892.13
2022-08-05T00:04:17.512Z,99893.94
2022-08-05T00:06:47.046Z,99907.28
2022-08-05T00:09:19.551Z,99910.03
2022-08-05T00:11:55.752Z,99913.66
2022-08-05T00:14:27.658Z,99919.06
2022-08-05T00:16:58.106Z,99904.88
2022-08-05T00:19:32.871Z,99897.81
2022-08-05T00:22:11.306Z,99905.91
2022-08-05T00:24:42.394Z,99901.47
2022-08-05T00:27:28.552Z,99904.19
2022-08-05T00:30:03.448Z,99902.47
2022-08-05T00:32:31.960Z,99898.94
2022-08-05T00:35:07.559Z,99901.63
2022-08-05T00:37:53.414Z,99902.56
2022-08-05T00:40:26.766Z,99897.25
2022-08-05T00:43:00.391Z,99907.03
2022-08-05T00:45:38.587Z,99904.44
2022-08-05T00:48:13.026Z,99905.41
2022-08-05T00:50:44.375Z,99902.84
2022-08-05T00:54:00.330Z,99898.47
2022-08-05T00:56:05.542Z,99901.16
2022-08-05T00:58:38.091Z,99903.81
2022-08-05T01:01:09.069Z,99905.59
2022-08-05T01:03:38.607Z,99908.25
2022-08-05T01:06:14.145Z,99922.53
2022-08-05T01:08:44.666Z,99922.59
2022-08-05T01:11:22.718Z,99916.50
2022-08-05T01:14:03.810Z,99913.91
2022-08-05T01:16:44.460Z,99914.84
2022-08-05T01:19:46.308Z,99910.50
2022-08-05T01:22:41.593Z,99916.78
2022-08-05T01:25:39.632Z,99931.09
2022-08-05T01:28:30.546Z,99929.38
2022-08-05T01:31:03.426Z,99931.19
2022-08-05T01:33:35.965Z,99932.16
2022-08-05T01:36:12.950Z,99937.53
2022-08-05T01:38:43.431Z,99934.94
2022-08-05T01:41:16.518Z,99932.34
2022-08-05T01:43:53.703Z,99926.16
2022-08-05T01:46:42.280Z,99937.75
2022-08-05T01:49:22.924Z,99934.19
2022-08-05T01:52:17.437Z,99938.63
2022-08-05T01:54:59.015Z,99945.75
2022-08-05T01:58:18.941Z,99951.97
2022-08-05T02:00:29.881Z,99963.50
2022-08-05T02:03:07.663Z,99981.28
2022-08-05T02:05:59.686Z,100005.28
2022-08-05T02:08:30.760Z,100023.06
2022-08-05T02:11:06.047Z,100036.44
2022-08-05T02:13:53.062Z,100044.41
2022-08-05T02:16:28.087Z,100043.53
2022-08-05T02:18:58.033Z,100040.03
2022-08-05T02:21:29.214Z,100042.75
2022-08-05T02:24:10.231Z,100036.56
2022-08-05T02:26:54.717Z,100023.34
2022-08-05T02:29:58.226Z,100006.56
2022-08-05T02:32:23.758Z,100011.06
2022-08-05T02:34:55.295Z,100012.88
2022-08-05T02:37:25.284Z,100026.25
2022-08-05T02:39:55.004Z,100031.59
2022-08-05T02:42:26.140Z,100044.06
2022-08-05T02:44:58.749Z,100046.75
2022-08-05T02:48:06.970Z,100050.31
2022-08-05T02:50:19.065Z,100051.25
2022-08-05T02:52:48.313Z,100049.53
2022-08-05T02:55:17.678Z,100051.34
2022-08-05T02:58:19.949Z,100050.50
2022-08-05T03:00:49.928Z,100066.47
2022-08-05T03:03:20.907Z,100073.59
2022-08-05T03:06:53.879Z,100062.16
2022-08-05T03:08:43.181Z,100040.88
2022-08-05T03:11:54.843Z,100021.34
2022-08-05T03:14:08.049Z,100004.50
2022-08-05T03:16:36.770Z,99944.22
2022-08-05T03:19:12.756Z,99875.09
2022-08-05T03:21:48.837Z,99899.94
2022-08-05T03:24:27.562Z,99899.94
2022-08-05T03:26:58.431Z,99881.38
2022-08-05T03:29:44.785Z,99888.50
2022-08-05T03:32:16.261Z,99898.28
2022-08-05T03:34:51.366Z,99910.75
2022-08-05T03:37:20.912Z,99913.41
2022-08-05T03:40:11.750Z,99911.66
2022-08-05T03:42:51.511Z,99916.13
2022-08-05T03:45:23.335Z,99931.22
2022-08-05T03:47:56.853Z,99958.66
2022-08-05T03:50:30.194Z,99971.06
2022-08-05T03:55:51.304Z,99980.78
2022-08-05T03:56:12.225Z,99978.19
2022-08-05T03:58:48.041Z,100000.38
2022-08-05T04:01:22.050Z,100009.22
2022-08-05T04:04:09.211Z,100015.44
2022-08-05T04:06:47.433Z,100016.38
2022-08-05T04:09:25.946Z,100017.28
2022-08-05T04:11:56.381Z,100011.16
2022-08-05T04:14:30.074Z,100004.97
2022-08-05T04:17:00.926Z,99996.09
2022-08-05T04:19:31.459Z,99981.94
2022-08-05T04:22:08.863Z,99966.84
2022-08-05T04:24:43.920Z,99952.69
2022-08-05T04:27:20.216Z,99970.44
2022-08-05T04:30:03.752Z,99966.91
2022-08-05T04:32:33.392Z,99952.75
2022-08-05T04:35:03.765Z,99937.75
2022-08-05T04:38:01.278Z,99920.97
2022-08-05T04:40:23.113Z,99946.69
2022-08-05T04:42:51.459Z,99977.69
2022-08-05T04:45:31.188Z,100001.66
2022-08-05T04:48:18.375Z,99974.22
2022-08-05T04:51:03.021Z,99969.81
2022-08-05T04:53:35.424Z,99974.28
2022-08-05T04:56:32.958Z,99976.00
2022-08-05T04:58:52.678Z,99969.81
2022-08-05T05:02:05.564Z,99967.19
2022-08-05T05:04:09.476Z,99973.41
2022-08-05T05:06:44.828Z,99978.72
2022-08-05T05:09:18.916Z,99980.50
2022-08-05T05:11:53.176Z,99987.56
2022-08-05T05:14:27.928Z,99996.41
2022-08-05T05:17:00.656Z,99976.94
2022-08-05T05:19:36.631Z,99974.28
2022-08-05T05:22:22.847Z,99985.78
2022-08-05T05:24:57.874Z,99997.31
2022-08-05T05:27:44.415Z,99998.19
2022-08-05T05:30:15.419Z,99989.34
2022-08-05T05:32:57.325Z,99975.19
2022-08-05T05:35:34.111Z,99984.03
2022-08-05T05:38:13.172Z,99993.75
2022-08-05T05:40:49.432Z,100005.22
2022-08-05T05:43:27.940Z,100002.56
2022-08-05T05:46:15.697Z,99999.03
2022-08-05T05:48:44.846Z,100008.75
2022-08-05T05:51:20.107Z,100004.31
2022-08-05T05:53:57.540Z,99999.00
2022-08-05T05:56:32.240Z,100015.81
2022-08-05T05:59:03.164Z,100013.16
2022-08-05T06:01:36.986Z,100010.44
2022-08-05T06:04:07.479Z,100022.84
2022-08-05T06:06:36.429Z,100025.50
2022-08-05T06:09:07.714Z,100029.03
2022-08-05T06:11:39.361Z,100022.84
2022-08-05T06:14:08.063Z,100019.34
2022-08-05T06:16:37.276Z,100023.78
2022-08-05T06:19:07.348Z,100029.09
2022-08-05T06:21:38.428Z,100028.22
2022-08-05T06:24:12.101Z,100030.91
2022-08-05T06:26:51.530Z,100022.09
2022-08-05T06:29:45.330Z,100021.22
2022-08-05T06:32:26.281Z,100046.03
2022-08-05T06:34:58.654Z,100047.81
2022-08-05T06:37:56.301Z,100051.31
2022-08-05T06:40:17.892Z,100054.88
2022-08-05T06:42:51.552Z,100060.22
2022-08-05T06:46:02.915Z,100068.25
2022-08-05T06:48:47.060Z,100068.25
2022-08-05T06:51:00.255Z,100070.91
2022-08-05T06:53:29.410Z,100076.22
2022-08-05T06:55:59.364Z,100075.34
2022-08-05T06:58:36.498Z,100067.41
2022-08-05T07:01:07.078Z,100074.50
2022-08-05T07:03:35.879Z,100076.34
2022-08-05T07:06:06.076Z,100082.56
2022-08-05T07:08:47.913Z,100075.50
2022-08-05T07:11:22.227Z,100084.38
2022-08-05T07:14:20.037Z,100091.47
2022-08-05T07:17:58.676Z,100092.41
2022-08-05T07:20:32.485Z,100090.66
2022-08-05T07:22:38.938Z,100098.66
2022-08-05T07:25:22.509Z,100100.44
2022-08-05T07:28:05.328Z,100104.88
2022-08-05T07:30:40.305Z,100107.56
2022-08-05T07:33:15.520Z,100106.69
2022-08-05T07:36:02.190Z,100106.72
2022-08-05T07:38:35.657Z,100121.81
2022-08-05T07:42:06.863Z,100127.09
2022-08-05T07:44:06.068Z,100131.56
2022-08-05T07:46:45.943Z,100142.22
2022-08-05T07:49:18.014Z,100139.56
2022-08-05T07:51:53.441Z,100133.38
2022-08-05T07:54:31.619Z,100138.72
2022-08-05T07:57:17.860Z,100136.94
2022-08-05T07:59:51.361Z,100146.66
2022-08-05T08:02:26.571Z,100151.97
2022-08-05T08:04:56.077Z,100165.22
2022-08-05T08:07:24.756Z,100174.09
2022-08-05T08:09:56.992Z,100187.34
2022-08-05T08:12:35.549Z,100189.16
2022-08-05T08:15:15.605Z,100199.75
2022-08-05T08:17:50.734Z,100192.72
2022-08-05T08:21:00.144Z,100190.97
2022-08-05T08:24:02.215Z,100198.03
2022-08-05T08:26:02.646Z,100201.56
2022-08-05T08:28:36.849Z,100199.81
2022-08-05T08:31:17.333Z,100209.50
2022-08-05T08:33:51.775Z,100209.50
2022-08-05T08:36:38.197Z,100201.56
2022-08-05T08:39:15.463Z,100210.41
2022-08-05T08:41:50.752Z,100213.97
2022-08-05T08:45:18.857Z,100207.78
2022-08-05T08:47:47.699Z,100215.75
2022-08-05T08:50:31.102Z,100219.28
2022-08-05T08:52:57.626Z,100224.59
2022-08-05T08:55:32.134Z,100229.00
2022-08-05T08:58:17.460Z,100233.47
2022-08-05T09:00:46.858Z,100243.16
2022-08-05T09:03:19.161Z,100250.25
2022-08-05T09:06:09.132Z,100241.41
2022-08-05T09:08:40.515Z,100240.50
2022-08-05T09:11:12.172Z,100244.06
2022-08-05T09:14:09.214Z,100241.38
2022-08-05T09:16:31.290Z,100245.81
2022-08-05T09:18:59.760Z,100249.31
2022-08-05T09:22:21.772Z,100251.97
2022-08-05T09:24:18.169Z,100252.81
2022-08-05T09:26:48.605Z,100265.22
2022-08-05T09:29:20.871Z,100260.78
2022-08-05T09:32:45.964Z,100267.00
2022-08-05T09:34:54.955Z,100273.16
2022-08-05T09:38:17.209Z,100272.28
2022-08-05T09:40:32.121Z,100281.13
2022-08-05T09:43:02.064Z,100283.75
2022-08-05T09:46:06.671Z,100275.78
2022-08-05T09:48:30.310Z,100290.81
2022-08-05T09:51:01.801Z,100302.31
2022-08-05T09:53:54.431Z,100302.31
2022-08-05T09:56:27.386Z,100299.66
2022-08-05T09:59:00.509Z,100304.06
2022-08-05T10:01:32.395Z,100311.13
2022-08-05T10:04:04.556Z,100314.66
2022-08-05T10:06:41.480Z,100319.06
2022-08-05T10:09:28.325Z,100319.94
2022-08-05T10:12:30.251Z,100321.69
2022-08-05T10:15:20.404Z,100326.09
2022-08-05T10:18:14.036Z,100325.19
2022-08-05T10:20:47.913Z,100329.56
2022-08-05T10:23:34.442Z,100329.56
2022-08-05T10:26:14.368Z,100341.00
2022-08-05T10:28:44.108Z,100344.50
2022-08-05T10:32:50.500Z,100354.22
2022-08-05T10:34:03.338Z,100359.50
2022-08-05T10:36:32.101Z,100360.34
2022-08-05T10:39:11.741Z,100360.34
2022-08-05T10:41:56.802Z,100359.41
2022-08-05T10:44:31.865Z,100365.53
2022-08-05T10:47:26.487Z,100366.41
2022-08-05T10:50:32.838Z,100368.13
2022-08-05T10:52:58.588Z,100372.47
2022-08-05T10:55:30.307Z,100370.63
2022-08-05T10:58:11.256Z,100368.78
2022-08-05T11:00:46.828Z,100379.34
2022-08-05T11:03:25.629Z,100386.41
2022-08-05T11:06:15.792Z,100384.56
2022-08-05T11:09:31.877Z,100385.34
2022-08-05T11:12:50.792Z,100397.78
2022-08-05T11:16:00.276Z,100384.41
2022-08-05T11:18:29.755Z,100387.84
2022-08-05T11:20:58.953Z,100395.78
2022-08-05T11:24:05.660Z,100389.44
2022-08-05T11:26:33.442Z,100399.91
2022-08-05T11:29:12.699Z,100395.25
2022-08-05T11:31:57.453Z,100392.47
2022-08-05T11:34:47.532Z,100391.41
2022-08-05T11:38:26.664Z,100399.22
2022-08-05T11:41:13.987Z,100399.97
2022-08-05T11:44:05.874Z,100395.34
2022-08-05T11:47:09.296Z,100400.44
2022-08-05T11:49:28.254Z,100399.38
2022-08-05T11:51:58.799Z,100386.88
2022-08-05T11:54:33.989Z,100397.34
2022-08-05T11:57:08.384Z,100396.28
2022-08-05T11:59:53.213Z,100401.53
2022-08-05T12:02:31.467Z,100404.16
2022-08-05T12:05:06.982Z,100402.41
2022-08-05T12:08:10.329Z,100395.28
2022-08-05T12:10:43.110Z,100393.41
2022-08-05T12:13:27.947Z,100398.75
2022-08-05T12:16:14.449Z,100404.03
2022-08-05T12:18:53.144Z,100407.59
2022-08-05T12:21:26.979Z,100411.09
2022-08-05T12:24:07.180Z,100412.81
2022-08-05T12:26:38.940Z,100410.06
2022-08-05T12:29:09.360Z,100416.28
2022-08-05T12:31:50.108Z,100414.41
2022-08-05T12:34:26.723Z,100410.75
2022-08-05T12:36:58.546Z,100415.13
2022-08-05T12:39:37.302Z,100413.19
2022-08-05T12:42:18.097Z,100415.78
2022-08-05T12:44:51.491Z,100421.84
2022-08-05T12:47:30.565Z,100423.38
2022-08-05T12:50:13.454Z,100429.38
2022-08-05T12:52:43.336Z,100432.81
2022-08-05T12:55:22.689Z,100437.16
2022-08-05T12:58:48.881Z,100443.28
2022-08-05T13:02:02.520Z,100442.25
2022-08-05T13:03:41.474Z,100433.03
2022-08-05T13:06:16.031Z,100438.09
2022-08-05T13:08:52.129Z,100439.56
2022-08-05T13:12:01.436Z,100451.09
2022-08-05T13:14:24.680Z,100454.78
2022-08-05T13:17:09.743Z,100461.19
2022-08-05T13:19:40.475Z,100460.47
2022-08-05T13:22:29.230Z,100462.44
2022-08-05T13:25:05.643Z,100471.56
2022-08-05T13:27:39.196Z,100484.25
2022-08-05T13:30:32.752Z,100486.31
2022-08-05T13:33:01.517Z,100489.25
2022-08-05T13:35:43.282Z,100489.41
2022-08-05T13:38:20.500Z,100484.25
2022-08-05T13:41:01.457Z,100487.91
2022-08-05T13:43:45.266Z,100487.88
2022-08-05T13:46:37.662Z,100496.03
2022-08-05T13:49:10.261Z,100502.38
2022-08-05T13:51:41.787Z,100512.22
2022-08-05T13:54:17.210Z,100515.88
2022-08-05T13:56:55.066Z,100514.22
2022-08-05T13:59:27.150Z,100515.19
2022-08-05T14:01:59.553Z,100512.56
2022-08-05T14:04:50.154Z,100514.34
2022-08-05T14:07:26.072Z,100507.25
2022-08-05T14:10:13.164Z,100512.59
2022-08-05T14:12:48.423Z,100513.50
2022-08-05T14:16:07.006Z,100511.75
2022-08-05T14:18:14.923Z,100514.38
2022-08-05T14:20:47.261Z,100511.69
2022-08-05T14:23:23.347Z,100517.84
2022-08-05T14:25:54.490Z,100518.72
2022-08-05T14:28:28.590Z,100519.56
2022-08-05T14:30:57.314Z,100530.19
2022-08-05T14:33:25.847Z,100522.03
2022-08-05T14:35:54.880Z,100523.66
2022-08-05T14:38:32.267Z,100524.41
2022-08-05T14:41:06.393Z,100523.47
2022-08-05T14:43:59.451Z,100529.69
2022-08-05T14:46:29.789Z,100524.34
2022-08-05T14:49:04.190Z,100525.22
2022-08-05T14:51:37.610Z,100511.72
2022-08-05T14:54:28.350Z,100516.94
2022-08-05T14:56:55.533Z,100516.84
2022-08-05T14:59:25.367Z,100523.00
2022-08-05T15:01:58.261Z,100528.31
2022-08-05T15:04:29.162Z,100529.25
2022-08-05T15:06:57.758Z,100534.75
2022-08-05T15:09:51.388Z,100523.19
2022-08-05T15:12:16.800Z,100532.97
2022-08-05T15:14:49.709Z,100531.22
2022-08-05T15:17:47.339Z,100525.88
2022-08-05T15:20:18.701Z,100539.97
2022-08-05T15:22:52.158Z,100533.53
2022-08-05T15:25:23.448Z,100536.91
2022-08-05T15:28:14.294Z,100537.69
2022-08-05T15:30:46.212Z,100529.59
2022-08-05T15:33:56.678Z,100528.59
2022-08-05T15:36:05.457Z,100525.75
2022-08-05T15:38:40.800Z,100528.25
2022-08-05T15:41:21.539Z,100527.19
2022-08-05T15:43:54.671Z,100527.19
2022-08-05T15:46:25.303Z,100527.19
2022-08-05T15:48:58.631Z,100533.56
2022-08-05T15:52:12.645Z,100525.63
2022-08-05T15:54:19.713Z,100540.91
2022-08-05T15:56:48.059Z,100541.00
2022-08-05T15:59:19.947Z,100546.53
2022-08-05T16:01:53.591Z,100550.28
2022-08-05T16:04:25.637Z,100551.38
2022-08-05T16:06:55.780Z,100550.63
2022-08-05T16:09:24.976Z,100555.25
2022-08-05T16:11:56.494Z,100557.13
2022-08-05T16:14:24.903Z,100555.47
2022-08-05T16:16:57.606Z,100554.59
2022-08-05T16:20:05.657Z,100563.47
2022-08-05T16:22:15.502Z,100561.78
2022-08-05T16:24:51.183Z,100560.00
2022-08-05T16:27:32.278Z,100566.22
2022-08-05T16:30:25.748Z,100556.50
2022-08-05T16:32:56.773Z,100561.06
2022-08-05T16:35:28.531Z,100571.78
2022-08-05T16:38:03.007Z,100571.72
2022-08-05T16:40:47.917Z,100575.91
2022-08-05T16:43:24.044Z,100581.81
2022-08-05T16:46:05.897Z,100586.88
2022-08-05T16:48:39.118Z,100601.59
2022-08-05T16:51:09.452Z,100598.66
2022-08-05T16:54:02.450Z,100595.91
2022-08-05T16:56:30.501Z,100597.47
2022-08-05T16:59:03.127Z,100606.25
2022-08-05T17:01:54.024Z,100599.94
2022-08-05T17:04:27.984Z,100602.59
2022-08-05T17:07:01.253Z,100605.34
2022-08-05T17:09:38.785Z,100615.22
2022-08-05T17:12:22.627Z,100610.78
2022-08-05T17:15:08.491Z,100612.53
2022-08-05T17:17:41.953Z,100617.88
2022-08-05T17:20:14.794Z,100617.00
2022-08-05T17:22:43.335Z,100615.22
2022-08-05T17:25:33.945Z,100617.94
2022-08-05T17:28:01.786Z,100615.44
2022-08-05T17:30:30.221Z,100620.06
2022-08-05T17:32:58.698Z,100621.94
2022-08-05T17:35:32.556Z,100625.66
2022-08-05T17:38:17.454Z,100638.28
2022-08-05T17:40:46.036Z,100638.31
2022-08-05T17:43:16.006Z,100637.53
2022-08-05T17:45:47.822Z,100637.66
2022-08-05T17:48:21.133Z,100638.66
2022-08-05T17:50:54.588Z,100653.91
2022-08-05T17:53:25.764Z,100649.59
2022-08-05T17:55:59.750Z,100646.16
2022-08-05T17:58:32.269Z,100659.63
2022-08-05T18:01:01.220Z,100652.63
2022-08-05T18:03:59.641Z,100661.63
2022-08-05T18:06:19.805Z,100671.59
2022-08-05T18:08:57.967Z,100678.84
2022-08-05T18:11:33.555Z,100673.66
2022-08-05T18:14:06.600Z,100675.56
2022-08-05T18:16:51.080Z,100693.47
2022-08-05T18:19:22.708Z,100692.69
2022-08-05T18:22:09.010Z,100691.84
2022-08-05T18:24:40.200Z,100699.03
2022-08-05T18:27:08.806Z,100712.47
2022-08-05T18:29:51.992Z,100712.50
2022-08-05T18:32:28.075Z,100722.31
2022-08-05T18:34:58.703Z,100716.16
2022-08-05T18:37:34.353Z,100720.66
2022-08-05T18:40:34.233Z,100727.81
2022-08-05T18:42:58.617Z,100733.22
2022-08-05T18:45:40.946Z,100726.16
2022-08-05T18:48:11.215Z,100728.84
2022-08-05T18:51:01.754Z,100728.00
2022-08-05T18:53:50.466Z,100734.28
2022-08-05T18:56:21.897Z,100743.22
2022-08-05T18:58:54.999Z,100740.53
2022-08-05T19:01:47.413Z,100744.13
2022-08-05T19:04:24.074Z,100745.09
2022-08-05T19:06:53.713Z,100753.09
2022-08-05T19:09:23.600Z,100748.69
2022-08-05T19:12:01.062Z,100758.50
2022-08-05T19:14:53.378Z,100769.19
2022-08-05T19:17:19.321Z,100771.84
2022-08-05T19:19:48.660Z,100771.00
2022-08-05T19:22:17.945Z,100771.03
2022-08-05T19:24:54.353Z,100771.91
2022-08-05T19:27:27.930Z,100775.50
2022-08-05T19:29:58.982Z,100782.63
2022-08-05T19:32:27.814Z,100784.34
2022-08-05T19:34:56.725Z,100791.47
2022-08-05T19:37:29.808Z,100790.63
2022-08-05T19:40:09.989Z,100793.28
2022-08-05T19:42:39.128Z,100795.94
2022-08-05T19:45:08.871Z,100804.84
2022-08-05T19:47:43.016Z,100810.16
2022-08-05T19:50:12.694Z,100819.94
2022-08-05T19:52:41.368Z,100826.09
2022-08-05T19:56:15.347Z,100840.28
2022-08-05T19:58:19.781Z,100840.28
2022-08-05T20:00:50.560Z,100845.59
2022-08-05T20:03:20.661Z,100850.84
2022-08-05T20:05:51.141Z,100848.16
2022-08-05T20:08:24.577Z,100856.13
2022-08-05T20:10:55.150Z,100867.63
2022-08-05T20:13:30.007Z,100869.38
2022-08-05T20:15:59.576Z,100876.47
2022-08-05T20:18:33.967Z,100873.78
2022-08-05T20:21:05.137Z,100873.78
2022-08-05T20:23:39.960Z,100875.53
2022-08-05T20:26:22.008Z,100880.81
2022-08-05T20:28:54.037Z,100891.44
2022-08-05T20:31:36.805Z,100898.50
2022-08-05T20:34:06.073Z,100894.06
2022-08-05T20:36:37.038Z,100892.28
2022-08-05T20:39:07.707Z,100894.91
2022-08-05T20:41:43.858Z,100893.13
2022-08-05T20:44:19.161Z,100897.53
2022-08-05T20:46:59.091Z,100909.91
2022-08-05T20:49:28.216Z,100912.53
2022-08-05T20:51:58.068Z,100924.91
2022-08-05T20:54:43.239Z,100912.47
2022-08-05T20:57:42.095Z,100917.75
2022-08-05T21:00:34.897Z,100915.94
2022-08-05T21:03:07.182Z,100919.41
2022-08-05T21:05:47.620Z,100916.75
2022-08-05T21:08:32.891Z,100926.47
2022-08-05T21:11:11.910Z,100926.44
2022-08-05T21:13:47.820Z,100932.56
2022-08-05T21:16:30.219Z,100935.19
2022-08-05T21:19:01.134Z,100943.09
2022-08-05T21:21:39.019Z,100933.34
2022-08-05T21:24:15.704Z,100935.97
2022-08-05T21:26:53.543Z,100939.47
2022-08-05T21:29:31.447Z,100944.72
2022-08-05T21:32:02.164Z,100945.56
2022-08-05T21:34:31.671Z,100944.63
2022-08-05T21:37:01.667Z,100941.94
2022-08-05T21:39:30.474Z,100949.81
2022-08-05T21:42:03.052Z,100950.63
2022-08-05T21:44:33.376Z,100955.91
2022-08-05T21:47:02.017Z,100954.94
2022-08-05T21:49:58.932Z,100962.84
2022-08-05T21:52:27.451Z,100963.69
2022-08-05T21:54:57.560Z,100964.50
2022-08-05T21:57:35.021Z,100962.66
2022-08-05T22:00:11.241Z,100967.91
2022-08-05T22:02:43.966Z,100967.88
2022-08-05T22:05:14.223Z,100966.97
2022-08-05T22:07:59.567Z,100966.94
2022-08-05T22:10:31.012Z,100971.31
2022-08-05T22:13:09.356Z,100971.25
2022-08-05T22:16:01.367Z,100974.72
2022-08-05T22:18:36.371Z,100979.06
2022-08-05T22:21:17.894Z,100983.44
2022-08-05T22:24:08.996Z,100977.19
2022-08-05T22:26:59.865Z,100981.53
2022-08-05T22:29:30.560Z,100985.00
2022-08-05T22:32:03.448Z,100984.97
2022-08-05T22:34:32.557Z,100984.03
2022-08-05T22:37:03.858Z,100992.81
2022-08-05T22:39:34.493Z,100990.13
2022-08-05T22:42:12.448Z,100998.03
2022-08-05T22:44:48.424Z,101009.41
2022-08-05T22:47:29.828Z,101002.31
2022-08-05T22:50:19.630Z,101006.66
2022-08-05T22:52:49.639Z,101016.31
2022-08-05T22:55:21.380Z,101016.22
2022-08-05T22:57:50.780Z,101020.53
2022-08-05T23:00:21.162Z,101018.72
2022-08-05T23:02:53.216Z,101018.56
2022-08-05T23:05:23.437Z,101019.38
2022-08-05T23:07:53.287Z,101019.28
2022-08-05T23:10:23.995Z,101028.00
2022-08-05T23:12:55.610Z,101022.66
2022-08-05T23:15:26.993Z,101027.88
2022-08-05T23:18:03.310Z,101030.38
2022-08-05T23:20:37.509Z,101032.94
2022-08-05T23:23:08.657Z,101031.97
2022-08-05T23:25:51.688Z,101035.44
2022-08-05T23:28:27.790Z,101039.75
2022-08-05T23:31:16.247Z,101044.94
2022-08-05T23:34:04.361Z,101053.66
2022-08-05T23:36:38.615Z,101050.06
2022-08-05T23:39:17.314Z,101058.78
2022-08-05T23:42:01.183Z,101060.53
2022-08-05T23:44:31.313Z,101057.81
2022-08-05T23:47:02.428Z,101065.66
2022-08-05T23:49:35.602Z,101065.56
2022-08-05T23:52:25.205Z,101061.06
2022-08-05T23:54:55.183Z,101074.22
2022-08-05T23:57:24.464Z,101066.25
